Cape Romanzof LRRS Airport Cape Romanzof US
ICAO: PACZ
IATA:
Category: Medium
Scheduled Services:

Elevation: 464 ft
TransAlt. 18000 ft.

Airport Communications:
ANCHORAGE ARTCC:124.5
ANCHORAGE CNTR:132.5
KENAI RDO:122.1
INFO:126.2

PACZ Zoom In..

Runways:

(A) RW 02 length 3925 ft width 161 ft
---- / hdg 16

(B) RW 20 length 3925 ft width 161 ft
---- / hdg 196

Location; PACZ
Day. 23 / Time. 09.55 Zulu
* Altimeter: 30.03
* Temperature: 13° c. 55.4°f.
* Wind from: 060° Speed 10 kn.
Dewpoint: 12° c.
Visibility: 10 Statute Miles.
Clouds: Broken 3000 ft.
Clouds: Broken 9500 ft.

PACZ 230955Z AUTO 06010KT 10SM BKN030 BKN095 13/12 A3003 RMK AO2 SLP167 T01300117


Wind From 060°
Speed 10 kn.

 
 
jpsmedia.com for Web Design worldairports.se 2018   terms of use